Flight Track Log - Related Links

Times and Time Zones

All times are in EDT time to prevent confusion due to time zone crossing. See the NKS972 flight status page for this flight to view local times or setup timezone preferences in your user account.

Time Position Orientation Groundspeed Altitude Reporting Facility
EDT Latitude Longitude Course Direction KTS MPH feet Rate Location/Type
Thu 07:20:04 AM 32.8833 -97.0333 107° East 175 201 1,100  Level Dallas / Fort Worth TRACON
Thu 07:25:40 AM 32.7720 -96.6000 92° East 377 434 14,800 2,419 Climbing FlightAware ADS-B
Thu 07:26:21 AM 32.7690 -96.5130 92° East 388 447 16,300 2,231 Climbing FlightAware ADS-B
Thu 07:26:58 AM 32.7650 -96.4400 94° East 394 453 17,700 2,148 Climbing FlightAware ADS-B
Thu 07:27:42 AM 32.7610 -96.3380 93° East 410 472 19,200 2,000 Climbing FlightAware ADS-B
Thu 07:28:22 AM 32.7480 -96.2490 100° East 419 482 20,500 2,357 Climbing FlightAware ADS-B
Thu 07:29:06 AM 32.7320 -96.1500 101° East 408 470 22,500 2,000 Climbing FlightAware ADS-B
Thu 07:29:46 AM 32.7180 -96.0600 100° East 428 493 23,300 1,231 Climbing FlightAware ADS-B
Thu 07:30:24 AM 32.7040 -95.9700 100° East 440 506 24,100 1,417 Climbing FlightAware ADS-B
Thu 07:30:58 AM 32.6907 -95.8876 101° East 446 513 25,000 1,594 Climbing FlightAware ADS-B
Thu 07:31:28 AM 32.6790 -95.8145 101° East 453 521 25,800 1,371 Climbing FlightAware ADS-B
Thu 07:32:08 AM 32.6630 -95.7180 101° East 461 531 26,600 1,182 Climbing FlightAware ADS-B
Thu 07:32:34 AM 32.6560 -95.6530 97° East 467 537 27,100 1,263 Climbing FlightAware ADS-B
Thu 07:32:46 AM 32.6581 -95.6205 86° East 467 537 27,400 1,200 Climbing FlightAware ADS-B
Thu 07:33:54 AM 32.6710 -95.4500 85° East 476 548 28,700 1,222 Climbing FlightAware ADS-B
Thu 07:34:34 AM 32.6744 -95.3407 88° East 484 557 29,600 1,286 Climbing FlightAware ADS-B
Thu 07:35:04 AM 32.6538 -95.2639 108° East 484 557 30,200 1,333 Climbing FlightAware ADS-B
Thu 07:35:37 AM 32.6167 -95.1920 121° Southeast 481 554 31,000 1,459 Climbing FlightAware ADS-B
Thu 07:36:18 AM 32.5695 -95.0969 120° Southeast 481 554 32,000 1,417 Climbing FlightAware ADS-B
Thu 07:36:49 AM 32.5352 -95.0282 121° Southeast 477 549 32,700 1,475 Climbing FlightAware ADS-B
Thu 07:37:19 AM 32.5015 -94.9612 121° Southeast 474 545 33,500 1,452 Climbing FlightAware ADS-B
Thu 07:37:51 AM 32.4660 -94.8907 121° Southeast 471 542 34,200 1,258 Climbing FlightAware ADS-B
Thu 07:38:21 AM 32.4327 -94.8238 121° Southeast 468 539 34,800 787 Climbing FlightAware ADS-B
Thu 07:38:52 AM 32.3984 -94.7553 121° Southeast 475 547 35,000 130 Climbing FlightAware ADS-B
Thu 07:39:53 AM 32.3276 -94.6162 121° Southeast 488 562 35,000  Level FlightAware ADS-B
Thu 07:40:25 AM 32.2912 -94.5440 121° Southeast 486 559 35,000  Level FlightAware ADS-B
Thu 07:41:02 AM 32.2488 -94.4600 121° Southeast 484 557 35,000  Level FlightAware ADS-B
Thu 07:42:37 AM 32.1395 -94.2450 121° Southeast 481 554 35,000  Level FlightAware ADS-B
Thu 07:43:08 AM 32.1042 -94.1763 121° Southeast 481 554 35,000  Level FlightAware ADS-B
Thu 07:44:10 AM 32.0338 -94.0385 121° Southeast 480 552 35,000  Level FlightAware ADS-B
Thu 07:45:10 AM 31.9636 -93.9027 121° Southeast 483 556 35,000  Level FlightAware ADS-B
Thu 07:45:41 AM 31.9279 -93.8332 121° Southeast 482 555 35,000  Level FlightAware ADS-B
Thu 07:46:13 AM 31.8912 -93.7621 121° Southeast 482 555 35,000  Level FlightAware ADS-B
Thu 07:46:43 AM 31.8562 -93.6940 121° Southeast 483 556 35,000  Level FlightAware ADS-B
Thu 07:47:52 AM 31.7767 -93.5410 121° Southeast 482 555 35,000  Level FlightAware ADS-B
Thu 07:48:23 AM 31.7406 -93.4718 122° Southeast 483 556 35,000  Level FlightAware ADS-B
Thu 07:48:53 AM 31.7056 -93.4047 122° Southeast 484 557 35,000  Level FlightAware ADS-B
Thu 07:49:23 AM 31.6707 -93.3378 121° Southeast 483 556 35,000  Level FlightAware ADS-B
Thu 07:49:53 AM 31.6353 -93.2703 122° Southeast 482 555 35,000  Level FlightAware ADS-B
Thu 07:51:02 AM 31.5555 -93.1180 122° Southeast 481 554 35,000  Level FlightAware ADS-B
Thu 07:51:33 AM 31.5192 -93.0494 122° Southeast 480 552 35,000  Level FlightAware ADS-B
Thu 07:52:05 AM 31.4813 -92.9776 122° Southeast 480 552 35,000  Level FlightAware ADS-B
Thu 07:52:36 AM 31.4459 -92.9104 122° Southeast 478 550 35,000  Level FlightAware ADS-B
Thu 07:53:07 AM 31.4099 -92.8424 122° Southeast 479 551 35,000  Level FlightAware ADS-B
Thu 07:53:44 AM 31.3671 -92.7613 122° Southeast 479 551 35,000 -71 Level FlightAware ADS-B
Thu 07:54:31 AM 31.3116 -92.6570 122° Southeast 480 552 34,900  Descending FlightAware ADS-B
Thu 07:55:03 AM 31.2742 -92.5870 122° Southeast 482 555 35,000 81 Climbing FlightAware ADS-B
Thu 07:55:45 AM 31.2243 -92.4933 122° Southeast 484 557 35,000  Level FlightAware ADS-B
Thu 07:57:38 AM 31.0895 -92.2416 122° Southeast 483 556 35,000  Level FlightAware ADS-B
Thu 07:58:15 AM 31.0467 -92.1624 122° Southeast 481 554 35,000 306 Level FlightAware ADS-B
Thu 08:03:11 AM 30.7103 -91.5432 122° Southeast 453 521 36,700 291 Climbing FlightAware ADS-B
Thu 08:05:07 AM 30.5803 -91.3069 123° Southeast 450 518 37,000 111 Climbing FlightAware ADS-B
Thu 08:05:53 AM 30.5287 -91.2138 123° Southeast 450 518 37,000  Level FlightAware ADS-B
Thu 08:06:26 AM 30.4915 -91.1465 123° Southeast 460 529 37,000 -90 Level FlightAware ADS-B
Thu 08:07:00 AM 30.4650 -91.0889 123° Southeast 450 518 36,900 -63 Descending Houston Center
Thu 08:08:01 AM 30.3919 -90.9656 124° Southeast 460 529 36,900 108 Level Houston Center
Thu 08:13:28 AM 30.0290 -90.3140 124° Southeast 447 514 37,600 223 Climbing FlightAware ADS-B
Thu 08:14:17 AM 29.9660 -90.1980 122° Southeast 447 514 38,300 837 Climbing FlightAware ADS-B
Thu 08:14:54 AM 29.9190 -90.1130 123° Southeast 444 511 38,800 483 Climbing FlightAware ADS-B
Thu 08:15:44 AM 29.8640 -90.0130 122° Southeast 451 519 39,000 133 Climbing FlightAware ADS-B
Thu 08:16:24 AM 29.8190 -89.9310 122° Southeast 454 522 39,000  Level FlightAware ADS-B
Thu 08:17:06 AM 29.7710 -89.8450 123° Southeast 461 531 39,000  Level FlightAware ADS-B
Thu 08:17:50 AM 29.7200 -89.7520 122° Southeast 464 534 39,000  Level FlightAware ADS-B
Thu 08:18:31 AM 29.6740 -89.6680 122° Southeast 466 536 39,000  Level FlightAware ADS-B
Thu 08:19:12 AM 29.6270 -89.5820 122° Southeast 464 534 39,000  Level FlightAware ADS-B
Thu 08:19:54 AM 29.5780 -89.4930 122° Southeast 463 533 39,000 -68 Level FlightAware ADS-B
Thu 08:20:40 AM 29.5250 -89.4000 123° Southeast 464 534 38,900  Descending FlightAware ADS-B
Thu 08:21:20 AM 29.4780 -89.3150 122° Southeast 463 533 39,000 75 Climbing FlightAware ADS-B
Thu 08:22:00 AM 29.4330 -89.2340 123° Southeast 459 528 39,000  Level FlightAware ADS-B
Thu 08:22:44 AM 29.3840 -89.1450 122° Southeast 452 520 39,000  Level FlightAware ADS-B
Thu 08:23:24 AM 29.3370 -89.0630 123° Southeast 452 520 39,000  Level FlightAware ADS-B
Thu 08:24:05 AM 29.2900 -88.9800 123° Southeast 459 528 39,000  Level FlightAware ADS-B
Thu 08:24:47 AM 29.2420 -88.8940 123° Southeast 462 532 39,000  Level FlightAware ADS-B
Thu 08:25:33 AM 29.2000 -88.7930 115° Southeast 469 540 39,000  Level FlightAware ADS-B
Thu 08:26:15 AM 29.1690 -88.6970 110° East 455 524 39,000  Level FlightAware ADS-B
Thu 08:26:55 AM 29.1400 -88.6050 110° East 459 528 39,000  Level FlightAware ADS-B
Thu 08:27:39 AM 29.1070 -88.5040 110° East 459 528 39,000  Level FlightAware ADS-B
Thu 08:28:19 AM 29.0780 -88.4150 110° East 459 528 39,000  Level FlightAware ADS-B
Thu 08:29:04 AM 29.0480 -88.3110 108° East 464 534 39,000  Level FlightAware ADS-B
Thu 08:29:43 AM 29.0380 -88.2160 97° East 472 543 39,000  Level FlightAware ADS-B
Thu 08:30:19 AM 29.0530 -88.1260 79° East 485 558 39,000  Level FlightAware ADS-B
Thu 08:31:03 AM 29.1070 -88.0310 57° Northeast 492 566 39,000  Level FlightAware ADS-B
Thu 08:31:47 AM 29.1710 -87.9440 50° Northeast 491 565 39,000  Level FlightAware ADS-B
Thu 08:32:26 AM 29.2270 -87.8670 50° Northeast 488 562 39,000  Level FlightAware ADS-B
Thu 08:33:11 AM 29.2930 -87.7760 50° Northeast 488 562 39,000 -80 Level FlightAware ADS-B
Thu 08:33:41 AM 29.3360 -87.7150 51° Northeast 487 560 38,900  Descending FlightAware ADS-B
Thu 08:34:27 AM 29.4010 -87.6220 51° Northeast 486 559 39,000 70 Climbing FlightAware ADS-B
Thu 08:35:07 AM 29.4510 -87.5410 55° Northeast 482 555 39,000  Level FlightAware ADS-B
Thu 08:35:43 AM 29.4940 -87.4640 57° Northeast 473 544 39,000  Level FlightAware ADS-B
Thu 08:36:23 AM 29.5400 -87.3770 59° Northeast 471 542 39,000  Level FlightAware ADS-B
Thu 08:37:07 AM 29.5910 -87.2840 58° Northeast 475 547 39,000  Level FlightAware ADS-B
Thu 08:37:51 AM 29.6440 -87.1900 57° Northeast 474 545 39,000  Level FlightAware ADS-B
Thu 08:38:29 AM 29.6890 -87.1120 56° Northeast 474 545 39,000  Level FlightAware ADS-B
Thu 08:39:12 AM 29.7290 -87.0150 65° Northeast 471 542 39,000  Level FlightAware ADS-B
Thu 08:39:55 AM 29.7610 -86.9120 70° East 463 533 39,000 -78 Level FlightAware ADS-B
Thu 08:40:29 AM 29.7740 -86.8300 80° East 458 527 38,900 -77 Descending FlightAware ADS-B
Thu 08:41:13 AM 29.7670 -86.7260 94° East 455 524 38,900  Level FlightAware ADS-B
Thu 08:41:53 AM 29.7340 -86.6380 113° Southeast 446 513 38,900 71 Level FlightAware ADS-B
Thu 08:42:37 AM 29.6780 -86.5550 128° Southeast 455 524 39,000 71 Climbing FlightAware ADS-B
Thu 08:43:17 AM 29.6290 -86.4780 126° Southeast 454 522 39,000  Level FlightAware ADS-B
Thu 08:43:57 AM 29.5780 -86.4010 127° Southeast 453 521 39,000  Level FlightAware ADS-B
Thu 08:44:41 AM 29.5220 -86.3160 127° Southeast 453 521 39,000  Level FlightAware ADS-B
Thu 08:45:32 AM 29.4620 -86.2240 127° Southeast 456 525 39,000  Level FlightAware ADS-B
Thu 08:46:17 AM 29.4000 -86.1310 127° Southeast 458 527 39,000  Level FlightAware ADS-B
Thu 08:46:57 AM 29.3490 -86.0530 127° Southeast 455 524 39,000  Level FlightAware ADS-B
Thu 08:47:41 AM 29.2930 -85.9700 128° Southeast 448 516 39,000  Level FlightAware ADS-B
Thu 08:48:21 AM 29.2430 -85.8930 127° Southeast 445 512 39,000  Level FlightAware ADS-B
Thu 08:49:05 AM 29.1890 -85.8120 127° Southeast 451 519 39,000  Level FlightAware ADS-B
Thu 08:49:45 AM 29.1380 -85.7360 128° Southeast 459 528 39,000  Level FlightAware ADS-B
Thu 08:50:28 AM 29.0820 -85.6530 128° Southeast 458 527 39,000  Level FlightAware ADS-B
Thu 08:51:03 AM 29.0380 -85.5870 127° Southeast 452 520 39,000  Level FlightAware ADS-B
Thu 08:51:43 AM 28.9880 -85.5130 128° Southeast 447 514 39,000  Level FlightAware ADS-B
Thu 08:52:20 AM 28.9500 -85.4530 126° Southeast 447 514 39,000  Level FlightAware ADS-B
Thu 08:53:07 AM 28.8800 -85.3530 129° Southeast 451 519 39,000 -72 Level FlightAware ADS-B
Thu 08:53:43 AM 28.8350 -85.2870 128° Southeast 453 521 38,900 -81 Descending FlightAware ADS-B
Thu 08:54:21 AM 28.7950 -85.2250 126° Southeast 453 521 38,900  Level FlightAware ADS-B
Thu 08:55:10 AM 28.7420 -85.1460 127° Southeast 453 521 38,900  Level FlightAware ADS-B
Thu 08:55:47 AM 28.7020 -85.0860 127° Southeast 453 521 38,900  Level FlightAware ADS-B
Thu 08:56:49 AM 28.6360 -84.9850 127° Southeast 453 521 38,900  Level FlightAware ADS-B
Thu 08:57:25 AM 28.5970 -84.9270 127° Southeast 453 521 38,900  Level FlightAware ADS-B
Thu 08:58:26 AM 28.5320 -84.8280 127° Southeast 453 521 38,900  Level FlightAware ADS-B
Thu 08:59:14 AM 28.4810 -84.7500 127° Southeast 453 521 38,900  Level FlightAware ADS-B
Thu 08:59:50 AM 28.4420 -84.6920 127° Southeast 453 521 38,900  Level FlightAware ADS-B
Thu 09:00:27 AM 28.4020 -84.6320 127° Southeast 453 521 38,900  Level FlightAware ADS-B
Thu 09:01:16 AM 28.3500 -84.5530 127° Southeast 453 521 38,900  Level FlightAware ADS-B
Thu 09:01:53 AM 28.3100 -84.4930 127° Southeast 453 521 38,900  Level FlightAware ADS-B
Thu 09:02:41 AM 28.2590 -84.4160 127° Southeast 453 521 38,900 66 Level FlightAware ADS-B
Thu 09:03:24 AM 28.0790 -84.1820 131° Southeast 453 521 39,000 72 Climbing FlightAware ADS-B
Thu 09:04:04 AM 28.0270 -84.1070 128° Southeast 452 520 39,000  Level FlightAware ADS-B
Thu 09:04:49 AM 27.9720 -84.0200 126° Southeast 454 522 39,000 -71 Level FlightAware ADS-B
Thu 09:05:29 AM 27.9260 -83.9390 123° Southeast 454 522 38,900  Descending FlightAware ADS-B
Thu 09:07:18 AM 27.8280 -83.7600 122° Southeast 458 527 39,000  Climbing FlightAware ADS-B
Thu 09:08:15 AM 27.7367 -83.6214 122° Southeast 457 526 38,900 -51 Descending Miami Center
Thu 09:09:16 AM 27.6672 -83.5025 123° Southeast 457 526 38,900 50 Level Miami Center
Thu 09:10:16 AM 27.5914 -83.3833 126° Southeast 457 526 39,000 50 Climbing Miami Center
Thu 09:11:15 AM 27.5178 -83.2575 123° Southeast 463 533 39,000 -50 Level Miami Center
Thu 09:12:16 AM 27.4478 -83.1414 124° Southeast 463 533 38,900 -50 Descending Miami Center
Thu 09:13:16 AM 27.3778 -83.0231 124° Southeast 463 533 38,900  Level Miami Center
Thu 09:14:15 AM 27.3056 -82.9047 124° Southeast 457 526 38,900 -100 Level Miami Center
Thu 09:15:16 AM 27.2333 -82.7867 125° Southeast 457 526 38,700 -1,316 Descending Miami Center
Thu 09:20:38 AM 26.8250 -82.1210 125° Southeast 467 537 30,500 -1,591 Descending FlightAware ADS-B
Thu 09:21:18 AM 26.7790 -82.0450 124° Southeast 461 531 29,100 -2,188 Descending FlightAware ADS-B
Thu 09:22:03 AM 26.7210 -81.9520 125° Southeast 453 521 27,400 -2,200 Descending FlightAware ADS-B
Thu 09:22:48 AM 26.6690 -81.8670 124° Southeast 438 504 25,800 -2,250 Descending FlightAware ADS-B
Thu 09:23:23 AM 26.6280 -81.8010 125° Southeast 431 496 24,400 -2,192 Descending FlightAware ADS-B
Thu 09:24:32 AM 26.5520 -81.6790 125° Southeast 422 486 22,000 -2,312 Descending FlightAware ADS-B
Thu 09:25:12 AM 26.5070 -81.6080 125° Southeast 413 475 20,200 -3,450 Descending FlightAware ADS-B
Thu 09:25:52 AM 26.4640 -81.5390 125° Southeast 403 464 17,400 -4,364 Descending FlightAware ADS-B
Thu 09:26:29 AM 26.4260 -81.4770 124° Southeast 398 458 14,600 -3,600 Descending FlightAware ADS-B
Thu 09:27:07 AM 26.3830 -81.4110 126° Southeast 391 450 12,900 -2,602 Descending FlightAware ADS-B
Thu 09:27:52 AM 26.3380 -81.3390 125° Southeast 373 429 11,000 -1,482 Descending FlightAware ADS-B
Thu 09:28:32 AM 26.3000 -81.2790 125° Southeast 353 406 10,800 -212 Descending FlightAware ADS-B
Thu 09:29:17 AM 26.2610 -81.2160 125° Southeast 296 341 10,700 -450 Descending FlightAware ADS-B
Thu 09:29:52 AM 26.2340 -81.1730 125° Southeast 278 320 10,200 -1,200 Descending FlightAware ADS-B
Thu 09:30:27 AM 26.2090 -81.1330 125° Southeast 277 319 9,300 -1,500 Descending FlightAware ADS-B
Thu 09:30:52 AM 26.1900 -81.1030 125° Southeast 271 312 8,700 -1,309 Descending FlightAware ADS-B
Thu 09:31:22 AM 26.1700 -81.0660 121° Southeast 275 316 8,100 -1,067 Descending FlightAware ADS-B
Thu 09:31:37 AM 26.1610 -81.0490 121° Southeast 272 313 7,900 -450 Descending FlightAware ADS-B
Thu 09:32:02 AM 26.1480 -81.0170 114° Southeast 267 307 7,800 -109 Descending FlightAware ADS-B
Thu 09:32:32 AM 26.1330 -80.9780 113° Southeast 268 308 7,800  Level FlightAware ADS-B
Thu 09:32:57 AM 26.1210 -80.9470 113° Southeast 265 305 7,800 -764 Level FlightAware ADS-B
Thu 09:33:27 AM 26.1070 -80.9100 113° Southeast 262 302 7,100 -1,220 Descending FlightAware ADS-B
Thu 09:33:56 AM 26.0980 -80.8700 104° East 265 305 6,600 -960 Descending FlightAware ADS-B
Thu 09:34:42 AM 26.0950 -80.8080 93° East 258 297 5,900 -676 Descending FlightAware ADS-B
Thu 09:35:07 AM 26.0930 -80.7750 94° East 261 300 5,800 -171 Descending FlightAware ADS-B
Thu 09:35:17 AM 26.0930 -80.7620 90° East 262 302 5,800  Level FlightAware ADS-B
Thu 09:35:37 AM 26.0910 -80.7350 95° East 260 299 5,800  Level FlightAware ADS-B
Thu 09:35:57 AM 26.0890 -80.7080 95° East 263 303 5,800 -305 Level FlightAware ADS-B
Thu 09:38:54 AM 26.0790 -80.5100 93° East 215 247 4,800 -294 Descending FlightAware ADS-B
Thu 09:39:21 AM 26.0790 -80.4680 90° East 190 219 4,800 -429 Level FlightAware ADS-B
Thu 09:39:50 AM 26.0780 -80.4390 92° East 188 216 4,400 -824 Descending FlightAware ADS-B
Thu 09:40:12 AM 26.0780 -80.4200 90° East 188 216 4,100 -1,021 Descending FlightAware ADS-B
Thu 09:40:37 AM 26.0780 -80.3940 90° East 187 215 3,600 -1,091 Descending FlightAware ADS-B
Thu 09:41:07 AM 26.0780 -80.3650 90° East 182 209 3,100 -873 Descending FlightAware ADS-B
Thu 09:41:32 AM 26.0780 -80.3430 90° East 164 189 2,800 -800 Descending FlightAware ADS-B
Thu 09:41:52 AM 26.0780 -80.3260 90° East 171 197 2,500 -875 Descending FlightAware ADS-B
Thu 09:42:20 AM 26.0780 -80.3010 90° East 166 191 2,100 -857 Descending FlightAware ADS-B
Thu 09:42:48 AM 26.0780 -80.2800 90° East 162 186 1,700 -806 Descending FlightAware ADS-B
Thu 09:43:27 AM 26.0780 -80.2470 90° East 140 161 1,200 -778 Descending FlightAware ADS-B
Thu 09:43:42 AM 26.0770 -80.2370 96° East 135 155 1,000 -667 Descending FlightAware ADS-B
Thu 09:44:12 AM 26.0770 -80.2180 90° East 125 144 700 -600 Descending FlightAware ADS-B
Thu 09:44:42 AM 26.0770 -80.1990 90° East 123 142 400 -600 Descending FlightAware ADS-B
Thu 09:45:34 AM 26.0770 -80.1660 90° East 121 139 -462 Descending FlightAware ADS-B
Thu 09:46:06 AM 26.0770 -80.1500 90° East 52 60  Level FlightAware ADS-B
Thu 09:46:30 AM 26.0760 -80.1460 106° East 20 23  Level FlightAware ADS-B
Thu 09:52:00 AM 26.0667 -80.1500 180° South  Level FlightAware Approximate
Thu 09:53:00 AM 26.0726 -80.1527 180° South  Level Estimated

Login

Don't have an account? Register now (free) for customized features, flight alerts, and more!